createdAt,value
2023-03-17T00:02:01.461Z,10.7
2023-03-17T00:07:01.365Z,10.0
2023-03-17T00:12:06.317Z,9.6
2023-03-17T00:17:01.443Z,9.8
2023-03-17T00:22:01.685Z,9.8
2023-03-17T00:27:06.301Z,10.2
2023-03-17T00:32:01.281Z,10.2
2023-03-17T00:37:01.266Z,10.0
2023-03-17T00:42:06.428Z,9.8
2023-03-17T00:47:01.552Z,9.0
2023-03-17T00:57:06.305Z,8.6
2023-03-17T01:03:06.491Z,8.6
2023-03-17T01:13:01.328Z,9.6
2023-03-17T01:18:09.921Z,10.1
2023-03-17T01:23:06.652Z,10.2
2023-03-17T01:28:01.294Z,10.3
2023-03-17T01:33:06.451Z,10.6
2023-03-17T01:38:01.418Z,10.8
2023-03-17T01:43:01.358Z,10.8
2023-03-17T01:48:01.263Z,11.0
2023-03-17T01:53:06.424Z,10.9
2023-03-17T01:58:01.347Z,10.4
2023-03-17T02:03:01.367Z,10.6
2023-03-17T02:08:01.268Z,10.1
2023-03-17T02:13:01.496Z,9.8
2023-03-17T02:18:01.332Z,10.0
2023-03-17T02:23:01.284Z,10.3
2023-03-17T02:28:01.300Z,10.2
2023-03-17T02:33:06.641Z,9.5
2023-03-17T02:38:06.278Z,9.3
2023-03-17T02:43:06.333Z,9.2
2023-03-17T02:48:06.444Z,9.0
2023-03-17T02:53:06.434Z,8.4
2023-03-17T02:58:01.800Z,9.2
2023-03-17T03:03:01.626Z,9.3
2023-03-17T03:08:01.946Z,9.4
2023-03-17T03:13:01.460Z,9.1
2023-03-17T03:18:01.369Z,9.4
2023-03-17T03:23:06.287Z,9.1
2023-03-17T03:28:01.378Z,8.8
2023-03-17T03:33:06.734Z,8.1
2023-03-17T03:38:06.358Z,8.4
2023-03-17T03:48:01.266Z,6.6
2023-03-17T03:53:01.491Z,6.1
2023-03-17T03:58:06.515Z,6.4
2023-03-17T04:03:01.833Z,6.2
2023-03-17T04:08:01.262Z,7.0
2023-03-17T04:13:06.492Z,7.9
2023-03-17T04:18:06.903Z,8.2
2023-03-17T04:23:06.352Z,7.8
2023-03-17T04:28:01.298Z,8.2
2023-03-17T04:33:01.862Z,8.6
2023-03-17T04:38:01.385Z,8.3
2023-03-17T04:43:03.882Z,8.6
2023-03-17T04:48:06.517Z,9.1
2023-03-17T04:53:01.391Z,8.9
2023-03-17T04:58:06.266Z,8.3
2023-03-17T05:03:01.335Z,8.4
2023-03-17T05:08:06.480Z,8.4
2023-03-17T05:13:06.284Z,8.3
2023-03-17T05:18:06.828Z,8.0
2023-03-17T05:23:01.329Z,8.0
2023-03-17T05:28:01.457Z,8.1
2023-03-17T05:33:01.433Z,8.7
2023-03-17T05:38:06.441Z,8.8
2023-03-17T05:43:06.451Z,9.5
2023-03-17T05:48:01.297Z,9.7
2023-03-17T05:53:06.342Z,9.9
2023-03-17T05:58:01.285Z,9.2
2023-03-17T06:03:01.426Z,9.6
2023-03-17T06:08:06.342Z,9.4
2023-03-17T06:13:04.414Z,9.2
2023-03-17T06:23:06.558Z,9.8
2023-03-17T06:28:06.344Z,9.4
2023-03-17T06:33:01.972Z,8.9
2023-03-17T06:38:01.935Z,9.0
2023-03-17T06:43:01.527Z,8.6
2023-03-17T06:48:01.258Z,8.5
2023-03-17T06:53:01.319Z,8.4
2023-03-17T06:58:07.009Z,8.8
2023-03-17T07:03:01.694Z,8.8
2023-03-17T07:08:01.334Z,8.9
2023-03-17T07:13:01.399Z,7.9
2023-03-17T07:18:01.483Z,8.4
2023-03-17T07:23:01.460Z,7.8
2023-03-17T07:33:01.514Z,7.9
2023-03-17T07:38:01.423Z,8.9
2023-03-17T07:43:06.300Z,7.5
2023-03-17T07:48:01.314Z,8.2
2023-03-17T07:53:01.364Z,8.0
2023-03-17T07:58:06.789Z,7.8
2023-03-17T08:03:12.187Z,7.6
2023-03-17T08:08:01.954Z,8.7
2023-03-17T08:13:01.994Z,8.5
2023-03-17T08:18:01.943Z,8.2
2023-03-17T08:24:06.936Z,8.0
2023-03-17T08:29:02.331Z,7.2
2023-03-17T08:34:01.479Z,6.8
2023-03-17T08:39:06.822Z,6.4
2023-03-17T08:44:01.269Z,6.4
2023-03-17T08:49:01.365Z,6.4
2023-03-17T08:54:01.425Z,7.1
2023-03-17T08:59:06.284Z,6.6
2023-03-17T09:04:01.293Z,6.6
2023-03-17T09:09:01.355Z,6.4
2023-03-17T09:14:01.890Z,6.4
2023-03-17T09:19:01.578Z,6.0
2023-03-17T09:24:03.515Z,6.6
2023-03-17T09:29:06.113Z,6.0
2023-03-17T09:34:06.358Z,6.2
2023-03-17T09:39:01.341Z,6.0
2023-03-17T09:49:01.586Z,5.4
2023-03-17T09:54:03.426Z,6.0
2023-03-17T09:59:06.115Z,5.9
2023-03-17T10:04:08.315Z,6.0
2023-03-17T10:09:06.343Z,6.7
2023-03-17T10:14:06.309Z,6.6
2023-03-17T10:20:01.688Z,6.3
2023-03-17T10:25:04.168Z,6.4
2023-03-17T10:30:18.775Z,6.1
2023-03-17T10:35:06.554Z,5.5
2023-03-17T10:40:01.460Z,5.6
2023-03-17T10:45:16.881Z,5.4
2023-03-17T10:50:01.564Z,4.7
2023-03-17T10:55:01.466Z,5.0
2023-03-17T11:00:02.204Z,5.0
2023-03-17T11:05:06.345Z,4.8
2023-03-17T11:10:01.416Z,5.0
2023-03-17T11:15:14.806Z,5.5
2023-03-17T11:20:01.270Z,5.9
2023-03-17T11:25:10.733Z,6.1
2023-03-17T11:30:16.549Z,6.3
2023-03-17T11:35:01.389Z,6.6
2023-03-17T11:40:01.361Z,6.5
2023-03-17T11:45:12.925Z,6.0
2023-03-17T11:50:08.388Z,5.8
2023-03-17T11:55:01.329Z,5.4
2023-03-17T12:00:05.542Z,5.3
2023-03-17T12:10:06.549Z,5.4
2023-03-17T12:15:03.702Z,5.6
2023-03-17T12:20:07.624Z,5.8
2023-03-17T12:25:06.285Z,6.3
2023-03-17T12:30:07.307Z,6.8
2023-03-17T12:35:06.690Z,6.8
2023-03-17T12:40:01.257Z,6.4
2023-03-17T12:45:21.851Z,6.6
2023-03-17T12:50:01.339Z,6.2
2023-03-17T12:55:01.280Z,5.8
2023-03-17T13:00:01.316Z,6.0
2023-03-17T13:05:06.419Z,6.4
2023-03-17T13:10:06.368Z,6.4
2023-03-17T13:15:01.983Z,6.6
2023-03-17T13:20:06.313Z,7.3
2023-03-17T13:25:16.809Z,7.5
2023-03-17T13:35:06.273Z,8.0
2023-03-17T13:40:01.678Z,8.2
2023-03-17T13:45:21.739Z,7.8
2023-03-17T13:50:01.361Z,7.7
2023-03-17T13:55:06.275Z,7.5
2023-03-17T14:00:20.425Z,7.8
2023-03-17T14:05:06.482Z,8.1
2023-03-17T14:10:06.284Z,8.6
2023-03-17T14:15:08.760Z,9.0
2023-03-17T14:20:06.519Z,9.7
2023-03-17T14:25:06.506Z,10.2
2023-03-17T14:31:06.385Z,10.4
2023-03-17T14:36:06.708Z,10.6
2023-03-17T14:41:07.002Z,10.6
2023-03-17T14:46:01.590Z,10.0
2023-03-17T14:56:01.288Z,9.9
2023-03-17T15:01:06.556Z,9.0
2023-03-17T15:06:01.294Z,9.4
2023-03-17T15:11:01.566Z,10.0
2023-03-17T15:16:17.309Z,9.6
2023-03-17T15:21:01.924Z,10.0
2023-03-17T15:26:01.279Z,10.9
2023-03-17T15:31:11.490Z,11.2
2023-03-17T15:36:01.580Z,11.4
2023-03-17T15:41:01.275Z,12.2
2023-03-17T15:46:13.453Z,12.4
2023-03-17T15:51:03.754Z,12.5
2023-03-17T15:56:01.519Z,12.7
2023-03-17T16:07:01.417Z,10.8
2023-03-17T16:12:02.086Z,10.6
2023-03-17T16:17:01.441Z,11.5
2023-03-17T16:22:01.323Z,11.6
2023-03-17T16:27:07.011Z,13.9
2023-03-17T16:32:10.039Z,14.1
2023-03-17T16:37:01.883Z,14.7
2023-03-17T16:42:01.360Z,14.5
2023-03-17T16:47:02.304Z,15.0
2023-03-17T16:52:01.265Z,15.3
2023-03-17T16:57:08.330Z,15.5
2023-03-17T17:02:01.608Z,15.1
2023-03-17T17:07:01.386Z,15.3
2023-03-17T17:12:06.524Z,15.5
2023-03-17T17:17:06.316Z,15.3
2023-03-17T17:23:01.430Z,15.2
2023-03-17T17:38:01.561Z,16.4
2023-03-17T17:43:07.296Z,16.3
2023-03-17T17:48:01.271Z,17.2
2023-03-17T17:53:06.744Z,17.2
2023-03-17T17:58:02.431Z,17.5
2023-03-17T18:03:06.684Z,17.4
2023-03-17T18:08:01.372Z,17.8
2023-03-17T18:13:01.268Z,17.0
2023-03-17T18:23:02.111Z,17.7
2023-03-17T18:28:06.297Z,17.7
2023-03-17T18:33:01.559Z,17.7
2023-03-17T18:38:01.298Z,18.1
2023-03-17T18:43:06.598Z,17.7
2023-03-17T18:49:02.437Z,17.2
2023-03-17T18:54:06.405Z,16.8
2023-03-17T18:59:02.210Z,16.4
2023-03-17T19:04:01.276Z,16.3
2023-03-17T19:09:02.756Z,15.9
2023-03-17T19:14:01.363Z,15.8
2023-03-17T19:19:01.455Z,15.6
2023-03-17T19:24:01.484Z,15.0
2023-03-17T19:35:01.439Z,14.6
2023-03-17T19:40:04.553Z,11.9
2023-03-17T19:45:02.869Z,11.3
2023-03-17T19:50:01.944Z,11.5
2023-03-17T19:55:01.502Z,11.4
2023-03-17T20:00:01.972Z,10.5
2023-03-17T20:05:01.605Z,12.6
2023-03-17T20:10:01.309Z,12.4
2023-03-17T20:15:02.229Z,12.0
2023-03-17T20:20:06.450Z,12.1
2023-03-17T20:25:06.260Z,11.6
2023-03-17T20:30:03.254Z,10.8
2023-03-17T20:35:01.661Z,10.7
2023-03-17T20:40:06.304Z,10.7
2023-03-17T20:45:07.015Z,10.2
2023-03-17T20:50:01.518Z,10.4
2023-03-17T20:55:01.489Z,10.8
2023-03-17T21:00:03.763Z,10.8
2023-03-17T21:05:01.282Z,9.9
2023-03-17T21:10:01.707Z,9.7
2023-03-17T21:15:07.442Z,9.3
2023-03-17T21:20:01.336Z,8.7
2023-03-17T21:25:03.500Z,8.5
2023-03-17T21:30:08.134Z,8.8
2023-03-17T21:35:01.428Z,9.2
2023-03-17T21:40:06.406Z,9.7
2023-03-17T21:45:02.026Z,10.1
2023-03-17T21:50:06.476Z,10.3
2023-03-17T21:55:02.620Z,11.1
2023-03-17T22:00:06.829Z,11.0
2023-03-17T22:05:06.405Z,10.8
2023-03-17T22:10:06.420Z,10.4
2023-03-17T22:15:02.947Z,10.3
2023-03-17T22:20:01.562Z,9.4
2023-03-17T22:25:06.372Z,9.4
2023-03-17T22:30:01.918Z,9.4
2023-03-17T22:45:07.866Z,9.3
2023-03-17T22:50:06.356Z,8.9
2023-03-17T22:55:01.335Z,8.6
2023-03-17T23:00:08.702Z,8.4
2023-03-17T23:05:01.424Z,8.6
2023-03-17T23:10:01.294Z,8.9
2023-03-17T23:15:02.264Z,9.5
2023-03-17T23:20:06.534Z,9.1
2023-03-17T23:25:01.950Z,9.4
2023-03-17T23:30:07.449Z,9.0
2023-03-17T23:35:01.292Z,9.0
2023-03-17T23:40:04.236Z,8.8
2023-03-17T23:45:07.550Z,9.1
2023-03-17T23:50:06.290Z,8.8
2023-03-17T23:55:01.344Z,9.3
